sensor_id;sensor_type;location;lat;lon;timestamp;P1;durP1;ratioP1;P2;durP2;ratioP2
19863;SDS011;10094;48.820;9.226;2023-03-13T00:00:57;13.00;;;6.03;;
19863;SDS011;10094;48.820;9.226;2023-03-13T00:07:40;14.15;;;5.53;;
19863;SDS011;10094;48.820;9.226;2023-03-13T00:14:23;17.48;;;6.15;;
19863;SDS011;10094;48.820;9.226;2023-03-13T00:21:06;16.45;;;5.78;;
19863;SDS011;10094;48.820;9.226;2023-03-13T00:27:50;12.57;;;5.45;;
19863;SDS011;10094;48.820;9.226;2023-03-13T00:34:33;20.60;;;6.20;;
19863;SDS011;10094;48.820;9.226;2023-03-13T00:41:16;13.15;;;5.97;;
19863;SDS011;10094;48.820;9.226;2023-03-13T00:48:01;15.65;;;5.40;;
19863;SDS011;10094;48.820;9.226;2023-03-13T00:54:43;18.85;;;6.28;;
19863;SDS011;10094;48.820;9.226;2023-03-13T01:01:27;15.05;;;6.43;;
19863;SDS011;10094;48.820;9.226;2023-03-13T01:08:14;10.35;;;5.28;;
19863;SDS011;10094;48.820;9.226;2023-03-13T01:14:57;14.57;;;6.30;;
19863;SDS011;10094;48.820;9.226;2023-03-13T01:21:40;13.88;;;6.18;;
19863;SDS011;10094;48.820;9.226;2023-03-13T01:28:24;12.82;;;5.28;;
19863;SDS011;10094;48.820;9.226;2023-03-13T01:35:08;13.50;;;6.25;;
19863;SDS011;10094;48.820;9.226;2023-03-13T01:41:51;19.65;;;5.72;;
19863;SDS011;10094;48.820;9.226;2023-03-13T01:56:19;13.63;;;4.40;;
19863;SDS011;10094;48.820;9.226;2023-03-13T02:03:08;13.43;;;4.68;;
19863;SDS011;10094;48.820;9.226;2023-03-13T02:09:53;13.20;;;4.80;;
19863;SDS011;10094;48.820;9.226;2023-03-13T02:16:37;12.35;;;5.20;;
19863;SDS011;10094;48.820;9.226;2023-03-13T02:23:23;14.20;;;4.40;;
19863;SDS011;10094;48.820;9.226;2023-03-13T02:30:14;15.57;;;4.43;;
19863;SDS011;10094;48.820;9.226;2023-03-13T02:36:57;10.68;;;4.40;;
19863;SDS011;10094;48.820;9.226;2023-03-13T02:43:41;11.95;;;4.30;;
19863;SDS011;10094;48.820;9.226;2023-03-13T02:50:24;12.25;;;4.43;;
19863;SDS011;10094;48.820;9.226;2023-03-13T02:57:06;10.82;;;3.63;;
19863;SDS011;10094;48.820;9.226;2023-03-13T03:03:49;9.73;;;3.83;;
19863;SDS011;10094;48.820;9.226;2023-03-13T03:10:34;11.70;;;3.80;;
19863;SDS011;10094;48.820;9.226;2023-03-13T03:17:20;7.63;;;2.92;;
19863;SDS011;10094;48.820;9.226;2023-03-13T03:24:02;8.95;;;4.03;;
19863;SDS011;10094;48.820;9.226;2023-03-13T03:30:45;8.02;;;3.25;;
19863;SDS011;10094;48.820;9.226;2023-03-13T03:37:27;10.50;;;4.20;;
19863;SDS011;10094;48.820;9.226;2023-03-13T03:44:11;7.78;;;3.53;;
19863;SDS011;10094;48.820;9.226;2023-03-13T03:51:22;7.07;;;2.80;;
19863;SDS011;10094;48.820;9.226;2023-03-13T03:58:05;9.18;;;2.80;;
19863;SDS011;10094;48.820;9.226;2023-03-13T04:05:08;11.05;;;4.00;;
19863;SDS011;10094;48.820;9.226;2023-03-13T04:11:53;8.95;;;3.70;;
19863;SDS011;10094;48.820;9.226;2023-03-13T04:18:35;8.00;;;3.53;;
19863;SDS011;10094;48.820;9.226;2023-03-13T04:25:18;6.57;;;2.90;;
19863;SDS011;10094;48.820;9.226;2023-03-13T04:32:04;5.22;;;2.30;;
19863;SDS011;10094;48.820;9.226;2023-03-13T04:39:19;1.88;;;1.38;;
19863;SDS011;10094;48.820;9.226;2023-03-13T04:46:12;4.30;;;1.45;;
19863;SDS011;10094;48.820;9.226;2023-03-13T04:53:12;1.95;;;1.00;;
19863;SDS011;10094;48.820;9.226;2023-03-13T05:00:06;3.60;;;1.27;;
19863;SDS011;10094;48.820;9.226;2023-03-13T05:07:00;2.30;;;1.30;;
19863;SDS011;10094;48.820;9.226;2023-03-13T05:14:14;0.90;;;0.80;;
19863;SDS011;10094;48.820;9.226;2023-03-13T05:21:19;0.80;;;0.80;;
19863;SDS011;10094;48.820;9.226;2023-03-13T05:28:37;2.05;;;1.02;;
19863;SDS011;10094;48.820;9.226;2023-03-13T05:35:29;1.42;;;1.20;;
19863;SDS011;10094;48.820;9.226;2023-03-13T05:42:30;3.58;;;1.42;;
19863;SDS011;10094;48.820;9.226;2023-03-13T05:49:17;1.63;;;1.10;;
19863;SDS011;10094;48.820;9.226;2023-03-13T05:56:18;1.00;;;0.90;;
19863;SDS011;10094;48.820;9.226;2023-03-13T06:03:20;1.90;;;0.90;;
19863;SDS011;10094;48.820;9.226;2023-03-13T06:10:05;2.20;;;1.20;;
19863;SDS011;10094;48.820;9.226;2023-03-13T06:16:49;1.15;;;1.00;;
19863;SDS011;10094;48.820;9.226;2023-03-13T06:23:35;2.30;;;1.05;;
19863;SDS011;10094;48.820;9.226;2023-03-13T06:30:17;2.53;;;0.98;;
19863;SDS011;10094;48.820;9.226;2023-03-13T06:37:00;1.20;;;1.00;;
19863;SDS011;10094;48.820;9.226;2023-03-13T06:43:42;2.60;;;0.75;;
19863;SDS011;10094;48.820;9.226;2023-03-13T06:50:25;0.70;;;0.70;;
19863;SDS011;10094;48.820;9.226;2023-03-13T06:57:07;1.48;;;0.77;;
19863;SDS011;10094;48.820;9.226;2023-03-13T07:03:49;1.33;;;1.17;;
19863;SDS011;10094;48.820;9.226;2023-03-13T07:10:32;1.20;;;0.65;;
19863;SDS011;10094;48.820;9.226;2023-03-13T07:17:14;0.75;;;0.73;;
19863;SDS011;10094;48.820;9.226;2023-03-13T07:23:57;0.77;;;0.60;;
19863;SDS011;10094;48.820;9.226;2023-03-13T07:30:39;3.50;;;0.93;;
19863;SDS011;10094;48.820;9.226;2023-03-13T07:37:21;2.35;;;0.77;;
19863;SDS011;10094;48.820;9.226;2023-03-13T07:44:04;1.92;;;1.20;;
19863;SDS011;10094;48.820;9.226;2023-03-13T07:50:46;0.82;;;0.73;;
19863;SDS011;10094;48.820;9.226;2023-03-13T07:57:29;1.20;;;0.85;;
19863;SDS011;10094;48.820;9.226;2023-03-13T08:04:12;0.85;;;0.85;;
19863;SDS011;10094;48.820;9.226;2023-03-13T08:11:01;1.50;;;1.00;;
19863;SDS011;10094;48.820;9.226;2023-03-13T08:17:46;2.92;;;1.20;;
19863;SDS011;10094;48.820;9.226;2023-03-13T08:24:28;3.33;;;1.13;;
19863;SDS011;10094;48.820;9.226;2023-03-13T08:37:57;0.80;;;0.80;;
19863;SDS011;10094;48.820;9.226;2023-03-13T08:44:40;3.15;;;1.20;;
19863;SDS011;10094;48.820;9.226;2023-03-13T08:51:23;3.42;;;1.38;;
19863;SDS011;10094;48.820;9.226;2023-03-13T08:58:07;3.72;;;2.03;;
19863;SDS011;10094;48.820;9.226;2023-03-13T09:04:49;2.60;;;1.10;;
19863;SDS011;10094;48.820;9.226;2023-03-13T09:11:32;4.80;;;1.58;;
19863;SDS011;10094;48.820;9.226;2023-03-13T09:18:16;3.47;;;1.33;;
19863;SDS011;10094;48.820;9.226;2023-03-13T09:24:58;5.13;;;2.25;;
19863;SDS011;10094;48.820;9.226;2023-03-13T09:31:41;3.20;;;1.33;;
19863;SDS011;10094;48.820;9.226;2023-03-13T09:38:23;1.65;;;1.00;;
19863;SDS011;10094;48.820;9.226;2023-03-13T09:45:08;3.45;;;1.60;;
19863;SDS011;10094;48.820;9.226;2023-03-13T09:52:02;2.45;;;1.40;;
19863;SDS011;10094;48.820;9.226;2023-03-13T09:59:17;2.80;;;1.15;;
19863;SDS011;10094;48.820;9.226;2023-03-13T10:06:09;6.82;;;1.85;;
19863;SDS011;10094;48.820;9.226;2023-03-13T10:13:09;2.28;;;1.30;;
19863;SDS011;10094;48.820;9.226;2023-03-13T10:20:01;4.97;;;1.63;;
19863;SDS011;10094;48.820;9.226;2023-03-13T10:26:49;5.07;;;1.60;;
19863;SDS011;10094;48.820;9.226;2023-03-13T10:33:31;3.03;;;1.63;;
19863;SDS011;10094;48.820;9.226;2023-03-13T10:40:22;4.57;;;2.03;;
19863;SDS011;10094;48.820;9.226;2023-03-13T10:47:08;1.80;;;1.40;;
19863;SDS011;10094;48.820;9.226;2023-03-13T10:53:53;4.90;;;2.00;;
19863;SDS011;10094;48.820;9.226;2023-03-13T11:00:37;6.43;;;1.90;;
19863;SDS011;10094;48.820;9.226;2023-03-13T11:14:08;4.57;;;2.00;;
19863;SDS011;10094;48.820;9.226;2023-03-13T11:20:54;3.58;;;1.90;;
19863;SDS011;10094;48.820;9.226;2023-03-13T11:27:54;12.50;;;2.83;;
19863;SDS011;10094;48.820;9.226;2023-03-13T11:34:53;2.78;;;1.60;;
19863;SDS011;10094;48.820;9.226;2023-03-13T11:48:46;3.25;;;1.55;;
19863;SDS011;10094;48.820;9.226;2023-03-13T11:55:36;2.13;;;1.40;;
19863;SDS011;10094;48.820;9.226;2023-03-13T12:02:49;3.35;;;1.70;;
19863;SDS011;10094;48.820;9.226;2023-03-13T12:09:40;2.50;;;1.48;;
19863;SDS011;10094;48.820;9.226;2023-03-13T12:30:25;4.18;;;1.67;;
19863;SDS011;10094;48.820;9.226;2023-03-13T12:44:15;2.50;;;1.30;;
19863;SDS011;10094;48.820;9.226;2023-03-13T12:51:11;5.63;;;1.52;;
19863;SDS011;10094;48.820;9.226;2023-03-13T12:58:20;5.00;;;1.95;;
19863;SDS011;10094;48.820;9.226;2023-03-13T13:05:15;2.33;;;1.60;;
19863;SDS011;10094;48.820;9.226;2023-03-13T13:12:20;5.28;;;1.70;;
19863;SDS011;10094;48.820;9.226;2023-03-13T13:47:04;4.38;;;1.50;;
19863;SDS011;10094;48.820;9.226;2023-03-13T14:01:00;2.75;;;1.42;;
19863;SDS011;10094;48.820;9.226;2023-03-13T14:07:49;4.60;;;1.27;;
19863;SDS011;10094;48.820;9.226;2023-03-13T14:14:32;4.13;;;1.23;;
19863;SDS011;10094;48.820;9.226;2023-03-13T14:21:19;5.15;;;1.83;;
19863;SDS011;10094;48.820;9.226;2023-03-13T14:28:03;3.65;;;1.30;;
19863;SDS011;10094;48.820;9.226;2023-03-13T14:34:46;2.05;;;1.10;;
19863;SDS011;10094;48.820;9.226;2023-03-13T14:41:35;3.72;;;1.70;;
19863;SDS011;10094;48.820;9.226;2023-03-13T14:48:27;5.70;;;1.80;;
19863;SDS011;10094;48.820;9.226;2023-03-13T15:02:20;4.43;;;1.73;;
19863;SDS011;10094;48.820;9.226;2023-03-13T15:09:14;9.80;;;3.83;;
19863;SDS011;10094;48.820;9.226;2023-03-13T15:15:59;4.85;;;1.55;;
19863;SDS011;10094;48.820;9.226;2023-03-13T15:22:43;1.45;;;1.02;;
19863;SDS011;10094;48.820;9.226;2023-03-13T15:29:26;3.33;;;1.55;;
19863;SDS011;10094;48.820;9.226;2023-03-13T15:36:09;2.08;;;1.20;;
19863;SDS011;10094;48.820;9.226;2023-03-13T15:42:52;4.95;;;1.88;;
19863;SDS011;10094;48.820;9.226;2023-03-13T15:49:35;3.83;;;1.85;;
19863;SDS011;10094;48.820;9.226;2023-03-13T15:56:19;6.10;;;1.60;;
19863;SDS011;10094;48.820;9.226;2023-03-13T16:03:03;1.65;;;1.05;;
19863;SDS011;10094;48.820;9.226;2023-03-13T16:09:46;2.72;;;1.75;;
19863;SDS011;10094;48.820;9.226;2023-03-13T16:16:30;5.90;;;1.80;;
19863;SDS011;10094;48.820;9.226;2023-03-13T16:23:19;2.83;;;1.55;;
19863;SDS011;10094;48.820;9.226;2023-03-13T16:30:02;5.88;;;2.42;;
19863;SDS011;10094;48.820;9.226;2023-03-13T16:36:47;3.40;;;1.58;;
19863;SDS011;10094;48.820;9.226;2023-03-13T16:43:29;2.60;;;1.35;;
19863;SDS011;10094;48.820;9.226;2023-03-13T16:57:07;6.78;;;1.80;;
19863;SDS011;10094;48.820;9.226;2023-03-13T17:03:55;3.65;;;1.55;;
19863;SDS011;10094;48.820;9.226;2023-03-13T17:10:38;6.55;;;1.70;;
19863;SDS011;10094;48.820;9.226;2023-03-13T17:17:20;5.40;;;2.30;;
19863;SDS011;10094;48.820;9.226;2023-03-13T17:24:03;5.15;;;2.22;;
19863;SDS011;10094;48.820;9.226;2023-03-13T17:30:48;5.82;;;2.50;;
19863;SDS011;10094;48.820;9.226;2023-03-13T17:37:31;8.93;;;2.72;;
19863;SDS011;10094;48.820;9.226;2023-03-13T17:44:15;6.28;;;2.65;;
19863;SDS011;10094;48.820;9.226;2023-03-13T17:50:58;8.00;;;2.85;;
19863;SDS011;10094;48.820;9.226;2023-03-13T17:57:40;6.85;;;2.83;;
19863;SDS011;10094;48.820;9.226;2023-03-13T18:04:24;10.05;;;4.30;;
19863;SDS011;10094;48.820;9.226;2023-03-13T18:11:07;8.15;;;2.90;;
19863;SDS011;10094;48.820;9.226;2023-03-13T18:17:51;4.88;;;2.33;;
19863;SDS011;10094;48.820;9.226;2023-03-13T18:24:37;3.75;;;2.92;;
19863;SDS011;10094;48.820;9.226;2023-03-13T18:31:19;7.78;;;4.72;;
19863;SDS011;10094;48.820;9.226;2023-03-13T18:38:02;5.03;;;2.40;;
19863;SDS011;10094;48.820;9.226;2023-03-13T18:44:44;4.22;;;1.73;;
19863;SDS011;10094;48.820;9.226;2023-03-13T18:51:27;5.20;;;1.90;;
19863;SDS011;10094;48.820;9.226;2023-03-13T18:58:11;6.03;;;1.73;;
19863;SDS011;10094;48.820;9.226;2023-03-13T19:04:55;2.95;;;2.13;;
19863;SDS011;10094;48.820;9.226;2023-03-13T19:11:37;3.65;;;1.80;;
19863;SDS011;10094;48.820;9.226;2023-03-13T19:18:23;3.40;;;1.95;;
19863;SDS011;10094;48.820;9.226;2023-03-13T19:25:05;4.40;;;2.00;;
19863;SDS011;10094;48.820;9.226;2023-03-13T19:31:49;2.83;;;2.03;;
19863;SDS011;10094;48.820;9.226;2023-03-13T19:38:31;3.10;;;2.55;;
19863;SDS011;10094;48.820;9.226;2023-03-13T19:45:14;4.50;;;3.08;;
19863;SDS011;10094;48.820;9.226;2023-03-13T19:52:01;3.55;;;1.88;;
19863;SDS011;10094;48.820;9.226;2023-03-13T19:58:44;3.38;;;2.42;;
19863;SDS011;10094;48.820;9.226;2023-03-13T20:05:28;2.30;;;2.03;;
19863;SDS011;10094;48.820;9.226;2023-03-13T20:12:11;5.07;;;2.60;;
19863;SDS011;10094;48.820;9.226;2023-03-13T20:18:53;2.38;;;1.20;;
19863;SDS011;10094;48.820;9.226;2023-03-13T20:25:36;1.63;;;0.95;;
19863;SDS011;10094;48.820;9.226;2023-03-13T20:32:18;1.58;;;0.85;;
19863;SDS011;10094;48.820;9.226;2023-03-13T20:39:01;1.98;;;1.05;;
19863;SDS011;10094;48.820;9.226;2023-03-13T20:45:44;1.00;;;0.90;;
19863;SDS011;10094;48.820;9.226;2023-03-13T20:52:26;4.07;;;1.15;;
19863;SDS011;10094;48.820;9.226;2023-03-13T20:59:09;1.15;;;0.90;;
19863;SDS011;10094;48.820;9.226;2023-03-13T21:05:52;3.03;;;1.52;;
19863;SDS011;10094;48.820;9.226;2023-03-13T21:12:34;3.85;;;1.70;;
19863;SDS011;10094;48.820;9.226;2023-03-13T21:19:17;1.30;;;1.20;;
19863;SDS011;10094;48.820;9.226;2023-03-13T21:25:59;4.85;;;1.20;;
19863;SDS011;10094;48.820;9.226;2023-03-13T21:32:42;2.58;;;1.13;;
19863;SDS011;10094;48.820;9.226;2023-03-13T21:39:26;3.92;;;1.58;;
19863;SDS011;10094;48.820;9.226;2023-03-13T21:46:09;2.67;;;1.40;;
19863;SDS011;10094;48.820;9.226;2023-03-13T21:52:53;2.15;;;1.35;;
19863;SDS011;10094;48.820;9.226;2023-03-13T21:59:35;1.17;;;1.02;;
19863;SDS011;10094;48.820;9.226;2023-03-13T22:06:18;3.05;;;1.42;;
19863;SDS011;10094;48.820;9.226;2023-03-13T22:13:04;2.10;;;1.35;;
19863;SDS011;10094;48.820;9.226;2023-03-13T22:19:47;2.22;;;1.45;;
19863;SDS011;10094;48.820;9.226;2023-03-13T22:26:30;3.20;;;1.50;;
19863;SDS011;10094;48.820;9.226;2023-03-13T22:33:12;4.32;;;1.50;;
19863;SDS011;10094;48.820;9.226;2023-03-13T22:39:54;7.18;;;1.75;;
19863;SDS011;10094;48.820;9.226;2023-03-13T22:46:37;3.65;;;1.70;;
19863;SDS011;10094;48.820;9.226;2023-03-13T22:53:19;3.90;;;1.60;;
19863;SDS011;10094;48.820;9.226;2023-03-13T23:00:02;3.60;;;1.65;;
19863;SDS011;10094;48.820;9.226;2023-03-13T23:06:46;2.42;;;1.95;;
19863;SDS011;10094;48.820;9.226;2023-03-13T23:13:29;3.65;;;1.63;;
19863;SDS011;10094;48.820;9.226;2023-03-13T23:20:12;3.83;;;1.58;;
19863;SDS011;10094;48.820;9.226;2023-03-13T23:26:54;5.20;;;1.38;;
19863;SDS011;10094;48.820;9.226;2023-03-13T23:33:37;2.75;;;1.20;;
19863;SDS011;10094;48.820;9.226;2023-03-13T23:40:20;2.47;;;0.95;;
19863;SDS011;10094;48.820;9.226;2023-03-13T23:47:03;1.13;;;0.93;;
19863;SDS011;10094;48.820;9.226;2023-03-13T23:53:46;1.30;;;0.98;;
